createdAt,value
2019-02-07T00:01:07.770Z,14.77
2019-02-07T00:03:37.609Z,14.80
2019-02-07T00:06:07.444Z,23.27
2019-02-07T00:08:37.834Z,18.33
2019-02-07T00:11:07.505Z,20.57
2019-02-07T00:13:37.366Z,14.47
2019-02-07T00:16:07.015Z,16.17
2019-02-07T00:18:36.746Z,31.27
2019-02-07T00:21:06.804Z,17.83
2019-02-07T00:23:36.545Z,17.30
2019-02-07T00:26:06.257Z,22.17
2019-02-07T00:28:35.977Z,20.53
2019-02-07T00:31:05.811Z,20.00
2019-02-07T00:33:35.983Z,18.40
2019-02-07T00:36:05.898Z,19.07
2019-02-07T00:38:35.517Z,17.30
2019-02-07T00:41:05.451Z,17.23
2019-02-07T00:43:35.168Z,15.00
2019-02-07T00:46:05.584Z,15.43
2019-02-07T00:48:35.206Z,17.07
2019-02-07T00:51:05.125Z,15.87
2019-02-07T00:53:34.766Z,14.53
2019-02-07T00:56:04.511Z,15.23
2019-02-07T00:58:34.287Z,13.23
2019-02-07T01:01:03.976Z,13.30
2019-02-07T01:03:33.741Z,16.50
2019-02-07T01:06:03.390Z,15.00
2019-02-07T01:08:33.108Z,12.37
2019-02-07T01:11:03.157Z,14.67
2019-02-07T01:13:32.812Z,13.10
2019-02-07T01:16:02.982Z,16.77
2019-02-07T01:18:32.594Z,13.07
2019-02-07T01:21:02.304Z,16.87
2019-02-07T01:23:32.063Z,17.00
2019-02-07T01:26:02.149Z,16.10
2019-02-07T01:28:31.898Z,11.90
2019-02-07T01:31:01.916Z,14.70
2019-02-07T01:33:31.568Z,15.97
2019-02-07T01:36:01.093Z,23.00
2019-02-07T01:38:30.788Z,15.40
2019-02-07T01:41:00.475Z,13.77
2019-02-07T01:43:30.405Z,16.03
2019-02-07T01:46:00.118Z,17.07
2019-02-07T01:48:29.878Z,12.30
2019-02-07T01:50:59.630Z,14.17
2019-02-07T01:53:29.201Z,13.00
2019-02-07T01:55:59.143Z,15.60
2019-02-07T01:58:28.862Z,17.83
2019-02-07T02:00:58.441Z,17.43
2019-02-07T02:03:28.179Z,14.73
2019-02-07T02:05:57.819Z,13.47
2019-02-07T02:08:27.549Z,13.40
2019-02-07T02:10:57.304Z,14.60
2019-02-07T02:13:26.952Z,16.07
2019-02-07T02:15:56.587Z,14.23
2019-02-07T02:18:26.205Z,15.50
2019-02-07T02:20:56.108Z,15.63
2019-02-07T02:23:25.809Z,12.03
2019-02-07T02:25:55.623Z,23.67
2019-02-07T02:28:25.739Z,18.37
2019-02-07T02:30:55.468Z,13.90
2019-02-07T02:33:25.240Z,12.43
2019-02-07T02:35:54.791Z,19.00
2019-02-07T02:38:24.619Z,19.20
2019-02-07T02:40:54.558Z,17.27
2019-02-07T02:43:24.574Z,15.63
2019-02-07T02:45:54.361Z,17.23
2019-02-07T02:48:24.387Z,14.23
2019-02-07T02:50:53.904Z,13.83
2019-02-07T02:53:23.541Z,17.83
2019-02-07T02:55:53.354Z,15.80
2019-02-07T02:58:23.206Z,13.20
2019-02-07T03:00:57.426Z,14.97
2019-02-07T03:03:34.793Z,20.00
2019-02-07T03:06:24.420Z,12.20
2019-02-07T03:09:11.877Z,13.00
2019-02-07T03:11:59.476Z,12.93
2019-02-07T03:14:33.349Z,15.50
2019-02-07T03:17:07.137Z,15.83
2019-02-07T03:19:41.190Z,16.30
2019-02-07T03:22:14.871Z,9.00
2019-02-07T03:24:56.471Z,19.83
2019-02-07T03:27:27.629Z,17.27
2019-02-07T03:33:04.917Z,13.00
2019-02-07T03:35:51.981Z,16.73
2019-02-07T03:38:23.172Z,12.90
2019-02-07T03:40:54.544Z,11.73
2019-02-07T03:43:32.362Z,14.03
2019-02-07T03:46:06.186Z,14.57
2019-02-07T03:48:46.177Z,17.07
2019-02-07T03:51:20.313Z,15.43
2019-02-07T03:53:56.953Z,9.73
2019-02-07T03:56:31.739Z,13.27
2019-02-07T03:59:01.026Z,17.63
2019-02-07T04:01:32.581Z,13.10
2019-02-07T04:04:13.876Z,10.07
2019-02-07T04:06:47.830Z,12.50
2019-02-07T04:09:18.984Z,17.10
2019-02-07T04:11:56.267Z,12.23
2019-02-07T04:14:42.791Z,12.60
2019-02-07T04:17:30.097Z,15.30
2019-02-07T04:20:15.983Z,12.57
2019-02-07T04:23:02.373Z,16.90
2019-02-07T04:25:45.877Z,12.77
2019-02-07T04:28:25.645Z,15.90
2019-02-07T04:30:59.759Z,14.20
2019-02-07T04:33:30.950Z,12.00
2019-02-07T04:36:02.110Z,15.73
2019-02-07T04:38:36.214Z,15.50
2019-02-07T04:41:19.244Z,11.13
2019-02-07T04:43:53.381Z,9.77
2019-02-07T04:46:27.576Z,13.10
2019-02-07T04:48:58.804Z,8.50
2019-02-07T04:51:32.675Z,16.77
2019-02-07T04:54:09.535Z,11.63
2019-02-07T04:56:40.721Z,19.13
2019-02-07T04:59:11.878Z,18.60
2019-02-07T05:01:45.661Z,11.93
2019-02-07T05:04:34.649Z,11.33
2019-02-07T05:07:08.719Z,15.97
2019-02-07T05:09:45.310Z,9.47
2019-02-07T05:12:22.225Z,12.80
2019-02-07T05:15:08.783Z,13.20
2019-02-07T05:17:42.994Z,14.33
2019-02-07T05:20:30.413Z,12.80
2019-02-07T05:23:07.694Z,18.90
2019-02-07T05:25:53.609Z,14.30
2019-02-07T05:28:40.883Z,21.37
2019-02-07T05:31:12.060Z,15.00
2019-02-07T05:33:47.738Z,13.80
2019-02-07T05:36:18.969Z,13.50
2019-02-07T05:38:50.134Z,13.03
2019-02-07T05:41:19.823Z,12.97
2019-02-07T05:43:56.819Z,11.93
2019-02-07T05:46:29.191Z,11.90
2019-02-07T05:49:18.668Z,14.13
2019-02-07T05:51:49.844Z,11.77
2019-02-07T05:54:32.936Z,16.33
2019-02-07T05:57:02.371Z,12.40
2019-02-07T05:59:33.518Z,9.87
2019-02-07T06:02:20.516Z,12.03
2019-02-07T06:04:57.339Z,14.57
2019-02-07T06:07:45.266Z,13.10
2019-02-07T06:10:22.376Z,11.90
2019-02-07T06:13:05.329Z,13.17
2019-02-07T06:15:39.199Z,12.33
2019-02-07T06:18:09.198Z,11.40
2019-02-07T06:20:45.872Z,10.43
2019-02-07T06:23:17.037Z,14.70
2019-02-07T06:26:04.308Z,16.13
2019-02-07T06:28:41.712Z,18.93
2019-02-07T06:31:21.904Z,15.63
2019-02-07T06:33:53.079Z,10.40
2019-02-07T06:36:28.072Z,14.53
2019-02-07T06:38:57.350Z,8.80
2019-02-07T06:41:28.500Z,9.70
2019-02-07T06:44:22.415Z,13.90
2019-02-07T06:47:13.573Z,16.70
2019-02-07T06:49:50.817Z,12.50
2019-02-07T06:52:29.105Z,14.30
2019-02-07T06:55:02.902Z,11.73
2019-02-07T06:57:42.803Z,14.30
2019-02-07T07:00:20.798Z,10.77
2019-02-07T07:03:03.892Z,12.10
2019-02-07T07:05:38.022Z,15.43
2019-02-07T07:08:15.068Z,15.37
2019-02-07T07:10:51.933Z,14.27
2019-02-07T07:13:32.059Z,12.27
2019-02-07T07:16:09.247Z,18.97
2019-02-07T07:18:56.429Z,17.20
2019-02-07T07:21:33.471Z,17.80
2019-02-07T07:24:18.010Z,27.10
2019-02-07T07:26:58.125Z,18.47
2019-02-07T07:29:31.998Z,13.97
2019-02-07T07:32:08.620Z,19.17
2019-02-07T07:34:55.827Z,17.83
2019-02-07T07:37:39.082Z,17.63
2019-02-07T07:40:30.227Z,22.30
2019-02-07T07:43:00.211Z,18.50
2019-02-07T07:45:43.141Z,16.50
2019-02-07T07:48:18.665Z,19.17
2019-02-07T07:51:01.758Z,19.10
2019-02-07T07:53:32.935Z,17.40
2019-02-07T07:56:04.943Z,20.00
2019-02-07T07:58:36.113Z,27.53
2019-02-07T08:01:24.735Z,16.67
2019-02-07T08:04:11.692Z,16.40
2019-02-07T08:06:42.956Z,23.83
2019-02-07T08:09:20.116Z,18.47
2019-02-07T08:11:54.281Z,17.47
2019-02-07T08:14:31.420Z,23.90
2019-02-07T08:17:08.774Z,21.20
2019-02-07T08:19:47.389Z,17.70
2019-02-07T08:22:18.556Z,23.60
2019-02-07T08:24:49.786Z,19.37
2019-02-07T08:27:20.940Z,20.10
2019-02-07T08:29:55.203Z,21.93
2019-02-07T08:32:38.251Z,19.00
2019-02-07T08:35:26.114Z,19.10
2019-02-07T08:38:15.301Z,24.87
2019-02-07T08:41:02.296Z,19.73
2019-02-07T08:43:33.455Z,17.40
2019-02-07T08:46:20.363Z,23.10
2019-02-07T08:49:01.087Z,19.50
2019-02-07T08:51:48.389Z,21.47
2019-02-07T08:57:00.885Z,22.70
2019-02-07T08:59:32.040Z,20.47
2019-02-07T09:02:05.968Z,22.50
2019-02-07T09:04:52.495Z,19.77
2019-02-07T09:07:32.294Z,23.07
2019-02-07T09:10:03.487Z,22.60
2019-02-07T09:12:50.745Z,22.00
2019-02-07T09:15:28.048Z,21.67
2019-02-07T09:18:15.465Z,18.70
2019-02-07T09:21:02.818Z,24.20
2019-02-07T09:23:32.125Z,18.80
2019-02-07T09:26:11.918Z,23.60
2019-02-07T09:28:46.085Z,20.77
2019-02-07T09:31:17.254Z,22.20
2019-02-07T09:34:04.829Z,28.53
2019-02-07T09:36:38.770Z,19.80
2019-02-07T09:39:11.248Z,19.80
2019-02-07T09:41:57.741Z,21.37
2019-02-07T09:44:45.234Z,20.50
2019-02-07T09:47:23.520Z,22.40
2019-02-07T09:50:00.459Z,21.50
2019-02-07T09:52:31.615Z,20.07
2019-02-07T09:55:08.543Z,21.50
2019-02-07T09:57:48.395Z,26.07
2019-02-07T10:00:20.289Z,18.70
2019-02-07T10:03:06.438Z,21.87
2019-02-07T10:05:49.982Z,26.07
2019-02-07T10:08:25.021Z,29.70
2019-02-07T10:10:56.233Z,22.32
2019-02-07T10:13:36.607Z,23.60
2019-02-07T10:16:13.740Z,21.63
2019-02-07T10:18:44.909Z,24.60
2019-02-07T10:21:21.964Z,25.23
2019-02-07T10:23:56.471Z,21.67
2019-02-07T10:26:31.542Z,17.30
2019-02-07T10:29:07.290Z,23.73
2019-02-07T10:31:48.198Z,23.97
2019-02-07T10:34:30.938Z,25.57
2019-02-07T10:37:02.084Z,21.07
2019-02-07T10:39:34.090Z,28.93
2019-02-07T10:42:14.528Z,23.63
2019-02-07T10:44:43.817Z,23.80
2019-02-07T10:47:17.715Z,20.13
2019-02-07T10:49:58.982Z,26.73
2019-02-07T10:52:27.605Z,20.53
2019-02-07T10:54:58.769Z,19.13
2019-02-07T10:57:41.488Z,25.57
2019-02-07T11:00:35.753Z,23.07
2019-02-07T11:03:16.353Z,37.83
2019-02-07T11:06:03.756Z,22.00
2019-02-07T11:08:37.651Z,19.27
2019-02-07T11:11:21.072Z,17.83
2019-02-07T11:13:55.020Z,22.57
2019-02-07T11:16:42.922Z,35.43
2019-02-07T11:19:32.530Z,20.53
2019-02-07T11:22:16.075Z,13.57
2019-02-07T11:25:03.780Z,20.63
2019-02-07T11:27:33.087Z,26.73
2019-02-07T11:30:19.031Z,15.53
2019-02-07T11:33:06.661Z,15.37
2019-02-07T11:35:40.542Z,16.97
2019-02-07T11:38:24.249Z,13.90
2019-02-07T11:40:58.223Z,16.70
2019-02-07T11:43:35.307Z,13.67
2019-02-07T11:46:21.439Z,13.53
2019-02-07T11:49:06.991Z,11.53
2019-02-07T11:51:37.460Z,11.00
2019-02-07T11:54:20.753Z,9.07
2019-02-07T11:57:08.448Z,14.13
2019-02-07T11:59:56.254Z,19.23
2019-02-07T12:02:43.717Z,9.63
2019-02-07T12:05:24.090Z,10.73
2019-02-07T12:07:55.522Z,11.53
2019-02-07T12:10:26.661Z,11.63
2019-02-07T12:13:16.313Z,17.00
2019-02-07T12:15:56.570Z,13.20
2019-02-07T12:18:39.904Z,11.27
2019-02-07T12:21:13.496Z,9.47
2019-02-07T12:23:47.495Z,9.40
2019-02-07T12:26:19.023Z,10.93
2019-02-07T12:28:50.273Z,13.00
2019-02-07T12:31:30.670Z,13.40
2019-02-07T12:33:59.974Z,9.80
2019-02-07T12:36:31.995Z,10.87
2019-02-07T12:39:10.448Z,10.63
2019-02-07T12:41:57.761Z,13.90
2019-02-07T12:44:47.269Z,10.63
2019-02-07T12:47:16.747Z,16.47
2019-02-07T12:49:56.395Z,10.40
2019-02-07T12:52:36.471Z,12.83
2019-02-07T12:55:10.936Z,13.10
2019-02-07T12:57:51.143Z,8.70
2019-02-07T13:00:37.227Z,7.87
2019-02-07T13:03:17.820Z,10.10
2019-02-07T13:05:49.377Z,12.33
2019-02-07T13:08:29.175Z,15.53
2019-02-07T13:11:12.523Z,9.00
2019-02-07T13:13:43.686Z,11.70
2019-02-07T13:16:14.914Z,8.73
2019-02-07T13:18:58.297Z,11.03
2019-02-07T13:21:35.279Z,14.00
2019-02-07T13:24:06.614Z,12.33
2019-02-07T13:26:38.683Z,19.97
2019-02-07T13:29:15.721Z,14.90
2019-02-07T13:31:55.639Z,12.80
2019-02-07T13:34:43.157Z,12.60
2019-02-07T13:37:23.254Z,13.20
2019-02-07T13:40:10.311Z,9.63
2019-02-07T13:43:00.148Z,13.43
2019-02-07T13:45:34.190Z,11.90
2019-02-07T13:48:09.334Z,11.13
2019-02-07T13:50:40.939Z,20.43
2019-02-07T13:53:19.340Z,13.57
2019-02-07T13:56:05.426Z,13.43
2019-02-07T13:58:36.577Z,10.33
2019-02-07T14:01:07.944Z,14.10
2019-02-07T14:03:49.164Z,12.23
2019-02-07T14:06:20.582Z,13.00
2019-02-07T14:08:54.493Z,14.93
2019-02-07T14:11:43.755Z,16.07
2019-02-07T14:14:26.586Z,19.83
2019-02-07T14:16:57.756Z,31.70
2019-02-07T14:19:29.771Z,14.07
2019-02-07T14:22:02.360Z,16.57
2019-02-07T14:24:33.506Z,11.53
2019-02-07T14:27:21.439Z,12.40
2019-02-07T14:30:07.389Z,20.50
2019-02-07T14:32:56.736Z,12.20
2019-02-07T14:35:33.828Z,18.80
2019-02-07T14:38:11.155Z,16.67
2019-02-07T14:40:40.470Z,19.93
2019-02-07T14:43:12.018Z,18.17
2019-02-07T14:45:43.321Z,16.70
2019-02-07T14:48:14.619Z,14.70
2019-02-07T14:50:44.517Z,16.73
2019-02-07T14:53:14.132Z,13.03
2019-02-07T14:55:43.653Z,13.93
2019-02-07T14:58:13.162Z,10.00
2019-02-07T15:00:43.193Z,10.70
2019-02-07T15:03:12.874Z,12.83
2019-02-07T15:05:42.879Z,13.57
2019-02-07T15:08:12.396Z,9.30
2019-02-07T15:10:42.109Z,12.70
2019-02-07T15:13:11.690Z,10.73
2019-02-07T15:15:41.196Z,10.10
2019-02-07T15:18:10.856Z,18.57
2019-02-07T15:20:40.846Z,13.67
2019-02-07T15:23:10.440Z,9.87
2019-02-07T15:25:39.978Z,12.50
2019-02-07T15:28:09.499Z,9.20
2019-02-07T15:30:39.009Z,8.57
2019-02-07T15:33:08.528Z,10.50
2019-02-07T15:35:44.334Z,18.07
2019-02-07T15:38:13.857Z,10.83
2019-02-07T15:40:44.226Z,13.20
2019-02-07T15:43:13.898Z,11.67
2019-02-07T15:45:43.461Z,10.67
2019-02-07T15:48:13.046Z,8.93
2019-02-07T15:50:42.654Z,11.80
2019-02-07T15:53:12.900Z,11.20
2019-02-07T15:55:42.427Z,9.70
2019-02-07T15:58:11.928Z,12.33
2019-02-07T16:00:48.607Z,13.80
2019-02-07T16:03:35.233Z,12.27
2019-02-07T16:06:06.473Z,10.43
2019-02-07T16:08:36.116Z,12.73
2019-02-07T16:11:06.849Z,11.63
2019-02-07T16:13:36.643Z,13.63
2019-02-07T16:16:06.314Z,9.27
2019-02-07T16:18:35.841Z,13.13
2019-02-07T16:21:05.856Z,12.17
2019-02-07T16:23:35.585Z,20.60
2019-02-07T16:26:05.498Z,12.60
2019-02-07T16:28:35.012Z,15.57
2019-02-07T16:31:05.687Z,13.43
2019-02-07T16:33:35.198Z,15.40
2019-02-07T16:36:05.750Z,12.00
2019-02-07T16:38:35.263Z,14.93
2019-02-07T16:41:05.025Z,17.43
2019-02-07T16:43:34.691Z,14.50
2019-02-07T16:46:04.815Z,17.50
2019-02-07T16:48:34.341Z,16.53
2019-02-07T16:51:04.241Z,14.83
2019-02-07T16:53:33.754Z,16.10
2019-02-07T16:56:03.645Z,12.57
2019-02-07T16:58:33.437Z,14.97
2019-02-07T17:01:03.205Z,15.30
2019-02-07T17:03:32.718Z,18.83
2019-02-07T17:06:02.482Z,19.80
2019-02-07T17:08:32.061Z,17.67
2019-02-07T17:11:02.037Z,15.43
2019-02-07T17:13:31.724Z,19.57
2019-02-07T17:16:01.518Z,16.73
2019-02-07T17:18:31.015Z,20.70
2019-02-07T17:21:11.200Z,19.00
2019-02-07T17:23:31.922Z,17.80
2019-02-07T17:26:01.516Z,21.50
2019-02-07T17:28:31.286Z,17.37
2019-02-07T17:31:00.812Z,17.03
2019-02-07T17:33:30.410Z,13.57
2019-02-07T17:35:59.930Z,24.13
2019-02-07T17:38:29.901Z,14.67
2019-02-07T17:40:59.428Z,14.70
2019-02-07T17:43:28.951Z,16.40
2019-02-07T17:45:58.462Z,16.17
2019-02-07T17:48:27.979Z,18.03
2019-02-07T17:50:57.587Z,17.80
2019-02-07T17:53:27.109Z,17.00
2019-02-07T17:55:56.787Z,20.83
2019-02-07T17:58:26.290Z,23.83
2019-02-07T18:01:04.793Z,20.20
2019-02-07T18:03:34.382Z,18.73
2019-02-07T18:06:04.764Z,17.47
2019-02-07T18:08:34.626Z,22.50
2019-02-07T18:11:04.602Z,16.77
2019-02-07T18:13:34.286Z,19.30
2019-02-07T18:16:04.140Z,22.40
2019-02-07T18:18:33.671Z,20.37
2019-02-07T18:21:03.252Z,22.13
2019-02-07T18:23:33.131Z,21.73
2019-02-07T18:26:02.712Z,26.80
2019-02-07T18:28:32.246Z,29.23
2019-02-07T18:31:01.773Z,26.73
2019-02-07T18:33:31.363Z,29.07
2019-02-07T18:36:00.940Z,21.00
2019-02-07T18:38:30.643Z,20.57
2019-02-07T18:41:00.188Z,20.20
2019-02-07T18:43:29.704Z,19.60
2019-02-07T18:45:59.231Z,22.30
2019-02-07T18:48:28.746Z,20.57
2019-02-07T18:50:58.288Z,23.90
2019-02-07T18:53:28.181Z,28.03
2019-02-07T18:55:57.809Z,26.23
2019-02-07T18:58:27.327Z,22.73
2019-02-07T19:00:56.834Z,27.10
2019-02-07T19:03:26.362Z,22.07
2019-02-07T19:05:55.881Z,28.83
2019-02-07T19:08:25.691Z,28.70
2019-02-07T19:10:55.334Z,24.83
2019-02-07T19:13:24.866Z,25.20
2019-02-07T19:15:58.682Z,23.73
2019-02-07T19:18:28.201Z,22.37
2019-02-07T19:20:57.739Z,26.00
2019-02-07T19:23:27.281Z,23.47
2019-02-07T19:25:56.802Z,24.07
2019-02-07T19:28:26.314Z,28.23
2019-02-07T19:30:55.839Z,28.90
2019-02-07T19:33:25.353Z,26.17
2019-02-07T19:35:54.906Z,28.77
2019-02-07T19:38:24.598Z,28.63
2019-02-07T19:40:54.111Z,25.60
2019-02-07T19:43:23.635Z,28.80
2019-02-07T19:45:53.151Z,25.07
2019-02-07T19:48:22.688Z,27.97
2019-02-07T19:50:52.203Z,28.37
2019-02-07T19:53:22.008Z,26.37
2019-02-07T19:55:51.793Z,29.90
2019-02-07T19:58:21.321Z,25.47
2019-02-07T20:00:50.924Z,31.40
2019-02-07T20:03:20.559Z,29.63
2019-02-07T20:05:50.107Z,29.00
2019-02-07T20:08:20.000Z,26.93
2019-02-07T20:10:49.637Z,21.43
2019-02-07T20:13:19.152Z,33.07
2019-02-07T20:15:48.744Z,32.13
2019-02-07T20:18:18.279Z,28.70
2019-02-07T20:20:48.076Z,31.13
2019-02-07T20:23:17.875Z,48.73
2019-02-07T20:25:47.483Z,49.87
2019-02-07T20:28:17.006Z,37.00
2019-02-07T20:33:16.247Z,34.73
2019-02-07T20:35:45.765Z,33.80
2019-02-07T20:38:15.293Z,37.70
2019-02-07T20:40:45.093Z,34.40
2019-02-07T20:43:14.619Z,32.30
2019-02-07T20:45:44.143Z,28.33
2019-02-07T20:48:13.836Z,35.00
2019-02-07T20:50:43.359Z,34.17
2019-02-07T20:53:14.519Z,32.57
2019-02-07T20:55:44.120Z,37.20
2019-02-07T20:58:13.795Z,32.33
2019-02-07T21:00:43.514Z,31.03
2019-02-07T21:03:13.111Z,33.40
2019-02-07T21:05:42.649Z,30.23
2019-02-07T21:08:12.175Z,35.57
2019-02-07T21:10:41.688Z,34.47
2019-02-07T21:13:11.393Z,31.77
2019-02-07T21:15:40.960Z,32.10
2019-02-07T21:18:10.623Z,31.63
2019-02-07T21:20:40.160Z,26.20
2019-02-07T21:23:09.875Z,29.23
2019-02-07T21:25:51.292Z,29.70
2019-02-07T21:28:20.892Z,30.33
2019-02-07T21:30:50.418Z,36.90
2019-02-07T21:33:19.971Z,34.00
2019-02-07T21:35:49.578Z,30.97
2019-02-07T21:38:19.140Z,31.83
2019-02-07T21:40:48.672Z,34.70
2019-02-07T21:43:18.189Z,40.77
2019-02-07T21:45:47.949Z,33.87
2019-02-07T21:48:17.451Z,35.37
2019-02-07T21:50:46.974Z,31.30
2019-02-07T21:53:17.140Z,32.90
2019-02-07T21:55:46.653Z,38.07
2019-02-07T21:58:16.683Z,31.60
2019-02-07T22:00:47.769Z,29.43
2019-02-07T22:03:17.293Z,28.07
2019-02-07T22:05:46.987Z,31.00
2019-02-07T22:08:16.840Z,28.80
2019-02-07T22:10:46.385Z,28.03
2019-02-07T22:13:16.025Z,36.33
2019-02-07T22:15:45.501Z,31.80
2019-02-07T22:18:15.043Z,30.43
2019-02-07T22:20:44.609Z,41.30
2019-02-07T22:23:14.305Z,34.60
2019-02-07T22:25:43.805Z,32.67
2019-02-07T22:28:13.773Z,31.80
2019-02-07T22:30:43.302Z,35.07
2019-02-07T22:33:13.205Z,37.10
2019-02-07T22:35:42.749Z,36.20
2019-02-07T22:38:12.406Z,35.37
2019-02-07T22:40:41.912Z,37.53
2019-02-07T22:43:11.807Z,32.03
2019-02-07T22:45:41.287Z,32.80
2019-02-07T22:48:10.895Z,31.77
2019-02-07T22:50:40.483Z,37.87
2019-02-07T22:53:10.180Z,35.03
2019-02-07T22:55:39.739Z,42.60
2019-02-07T22:58:09.762Z,28.67
2019-02-07T23:00:44.310Z,32.27
2019-02-07T23:03:19.634Z,34.53
2019-02-07T23:05:49.320Z,33.67
2019-02-07T23:08:19.167Z,35.00
2019-02-07T23:10:49.031Z,36.67
2019-02-07T23:13:18.637Z,32.43
2019-02-07T23:15:48.306Z,35.67
2019-02-07T23:18:18.067Z,34.30
2019-02-07T23:20:47.813Z,29.63
2019-02-07T23:23:17.421Z,38.50
2019-02-07T23:25:46.948Z,33.27
2019-02-07T23:28:16.632Z,30.73
2019-02-07T23:30:46.497Z,36.33
2019-02-07T23:33:16.319Z,27.83
2019-02-07T23:35:45.963Z,30.07
2019-02-07T23:38:15.533Z,34.53
2019-02-07T23:40:45.339Z,35.10
2019-02-07T23:43:15.082Z,33.70
2019-02-07T23:45:44.729Z,31.53
2019-02-07T23:48:14.432Z,30.50
2019-02-07T23:50:44.190Z,38.33
2019-02-07T23:53:15.424Z,33.67
2019-02-07T23:55:45.572Z,35.33
2019-02-07T23:58:15.319Z,35.87
